createdAt,value
2019-02-25T00:01:10.950Z,2.20
2019-02-25T00:03:39.645Z,2.21
2019-02-25T00:06:07.923Z,2.26
2019-02-25T00:09:07.357Z,2.25
2019-02-25T00:11:35.655Z,2.27
2019-02-25T00:14:03.978Z,2.15
2019-02-25T00:16:31.904Z,2.09
2019-02-25T00:19:00.042Z,2.08
2019-02-25T00:21:27.935Z,2.09
2019-02-25T00:23:56.183Z,2.13
2019-02-25T00:26:24.466Z,2.08
2019-02-25T00:28:52.332Z,2.15
2019-02-25T00:31:20.921Z,2.10
2019-02-25T00:33:48.702Z,2.22
2019-02-25T00:36:16.317Z,2.31
2019-02-25T00:38:43.873Z,2.38
2019-02-25T00:41:12.523Z,2.48
2019-02-25T00:43:40.434Z,2.55
2019-02-25T00:46:08.883Z,2.53
2019-02-25T00:48:37.461Z,2.54
2019-02-25T00:51:06.096Z,2.48
2019-02-25T00:53:34.222Z,2.48
2019-02-25T00:56:01.804Z,2.47
2019-02-25T00:58:30.083Z,2.48
2019-02-25T01:00:58.379Z,2.51
2019-02-25T01:03:25.965Z,2.49
2019-02-25T01:05:54.288Z,2.53
2019-02-25T01:08:22.195Z,2.64
2019-02-25T01:10:49.720Z,2.58
2019-02-25T01:13:17.367Z,2.52
2019-02-25T01:15:45.909Z,2.59
2019-02-25T01:18:14.512Z,2.62
2019-02-25T01:20:43.188Z,2.51
2019-02-25T01:23:11.589Z,2.49
2019-02-25T01:25:40.275Z,2.51
2019-02-25T01:28:08.545Z,2.53
2019-02-25T01:30:36.419Z,2.46
2019-02-25T01:33:04.680Z,2.47
2019-02-25T01:35:32.480Z,2.32
2019-02-25T01:38:01.115Z,2.20
2019-02-25T01:40:29.345Z,2.07
2019-02-25T01:42:57.931Z,2.01
2019-02-25T01:45:25.808Z,2.05
2019-02-25T01:47:54.086Z,2.07
2019-02-25T01:50:22.257Z,2.14
2019-02-25T01:52:50.855Z,2.14
2019-02-25T01:55:19.652Z,2.08
2019-02-25T01:57:47.871Z,2.01
2019-02-25T02:00:16.309Z,1.97
2019-02-25T02:02:44.533Z,1.87
2019-02-25T02:05:12.675Z,1.76
2019-02-25T02:07:40.974Z,1.63
2019-02-25T02:10:10.479Z,1.51
2019-02-25T02:12:39.058Z,1.45
2019-02-25T02:15:09.794Z,1.39
2019-02-25T02:17:37.668Z,1.34
2019-02-25T02:20:06.594Z,1.35
2019-02-25T02:22:35.149Z,1.38
2019-02-25T02:25:03.127Z,1.38
2019-02-25T02:27:30.913Z,1.47
2019-02-25T02:29:58.727Z,1.51
2019-02-25T02:32:27.289Z,1.47
2019-02-25T02:34:55.891Z,1.41
2019-02-25T02:37:23.708Z,1.48
2019-02-25T02:39:51.632Z,1.56
2019-02-25T02:42:39.831Z,1.61
2019-02-25T02:45:30.255Z,1.71
2019-02-25T02:48:36.917Z,1.79
2019-02-25T02:51:24.174Z,1.80
2019-02-25T02:53:52.367Z,1.82
2019-02-25T02:56:20.666Z,1.84
2019-02-25T02:58:49.251Z,1.83
2019-02-25T03:01:17.524Z,1.96
2019-02-25T03:03:45.394Z,2.09
2019-02-25T03:06:14.095Z,2.11
2019-02-25T03:08:42.770Z,2.16
2019-02-25T03:11:10.604Z,2.29
2019-02-25T03:13:38.429Z,2.32
2019-02-25T03:16:06.691Z,2.33
2019-02-25T03:18:35.305Z,2.35
2019-02-25T03:21:03.888Z,2.26
2019-02-25T03:23:32.411Z,2.21
2019-02-25T03:26:01.066Z,2.19
2019-02-25T03:28:29.131Z,2.20
2019-02-25T03:30:57.414Z,2.15
2019-02-25T03:33:24.996Z,2.21
2019-02-25T03:35:53.305Z,2.21
2019-02-25T03:38:21.661Z,2.34
2019-02-25T03:40:49.512Z,2.36
2019-02-25T03:43:17.618Z,2.42
2019-02-25T03:45:46.092Z,2.48
2019-02-25T03:48:14.348Z,2.59
2019-02-25T03:50:42.593Z,2.70
2019-02-25T03:53:10.425Z,2.70
2019-02-25T03:55:38.631Z,2.79
2019-02-25T03:58:06.989Z,2.81
2019-02-25T04:00:35.495Z,2.71
2019-02-25T04:03:03.850Z,2.66
2019-02-25T04:05:32.372Z,2.67
2019-02-25T04:08:00.615Z,2.71
2019-02-25T04:10:29.135Z,2.74
2019-02-25T04:12:57.801Z,2.55
2019-02-25T04:15:31.283Z,2.41
2019-02-25T04:17:59.222Z,2.34
2019-02-25T04:20:27.464Z,2.29
2019-02-25T04:22:55.709Z,2.25
2019-02-25T04:25:24.026Z,2.16
2019-02-25T04:27:52.165Z,2.11
2019-02-25T04:30:20.793Z,2.12
2019-02-25T04:32:48.986Z,2.15
2019-02-25T04:35:17.359Z,2.21
2019-02-25T04:37:45.652Z,2.21
2019-02-25T04:40:13.927Z,2.27
2019-02-25T04:42:42.247Z,2.29
2019-02-25T04:45:12.861Z,2.26
2019-02-25T04:47:41.148Z,2.30
2019-02-25T04:50:09.827Z,2.25
2019-02-25T04:52:37.754Z,2.28
2019-02-25T04:55:05.758Z,2.15
2019-02-25T04:57:33.645Z,2.01
2019-02-25T05:00:01.816Z,1.99
2019-02-25T05:02:30.346Z,1.88
2019-02-25T05:04:58.265Z,1.80
2019-02-25T05:07:26.144Z,1.74
2019-02-25T05:09:54.737Z,1.73
2019-02-25T05:12:22.884Z,1.74
2019-02-25T05:14:51.085Z,1.89
2019-02-25T05:17:19.384Z,1.94
2019-02-25T05:19:47.998Z,1.93
2019-02-25T05:22:16.754Z,1.93
2019-02-25T05:24:45.057Z,1.92
2019-02-25T05:27:13.266Z,1.91
2019-02-25T05:29:41.911Z,1.90
2019-02-25T05:32:10.171Z,1.98
2019-02-25T05:34:38.393Z,1.92
2019-02-25T05:37:06.956Z,1.82
2019-02-25T05:39:35.561Z,1.79
2019-02-25T05:42:03.826Z,1.65
2019-02-25T05:44:32.322Z,1.67
2019-02-25T05:47:00.915Z,1.57
2019-02-25T05:49:29.090Z,1.54
2019-02-25T05:51:57.636Z,1.57
2019-02-25T05:54:25.450Z,1.65
2019-02-25T05:56:53.691Z,1.64
2019-02-25T05:59:21.597Z,1.69
2019-02-25T06:01:49.366Z,1.57
2019-02-25T06:04:17.653Z,1.50
2019-02-25T06:06:46.239Z,1.43
2019-02-25T06:09:14.126Z,1.39
2019-02-25T06:11:42.409Z,1.36
2019-02-25T06:14:10.614Z,1.33
2019-02-25T06:16:38.455Z,1.27
2019-02-25T06:19:07.034Z,1.18
2019-02-25T06:21:35.735Z,1.12
2019-02-25T06:24:04.317Z,1.14
2019-02-25T06:26:32.191Z,1.10
2019-02-25T06:29:00.740Z,1.06
2019-02-25T06:31:29.259Z,1.04
2019-02-25T06:33:57.550Z,1.06
2019-02-25T06:36:25.841Z,1.11
2019-02-25T06:38:54.496Z,1.13
2019-02-25T06:41:22.715Z,1.20
2019-02-25T06:43:51.290Z,1.24
2019-02-25T06:46:19.973Z,1.27
2019-02-25T06:48:47.857Z,1.24
2019-02-25T06:51:16.181Z,1.22
2019-02-25T06:53:44.391Z,1.19
2019-02-25T06:56:12.590Z,1.26
2019-02-25T06:58:41.207Z,1.29
2019-02-25T07:01:09.081Z,1.39
2019-02-25T07:03:37.358Z,1.50
2019-02-25T07:06:24.680Z,1.58
2019-02-25T07:09:12.084Z,1.72
2019-02-25T07:11:59.800Z,1.81
2019-02-25T07:14:47.540Z,1.94
2019-02-25T07:17:34.927Z,2.12
2019-02-25T07:20:09.432Z,2.25
2019-02-25T07:23:16.259Z,2.31
2019-02-25T07:26:03.782Z,2.34
2019-02-25T07:28:51.069Z,2.36
2019-02-25T07:31:38.186Z,2.36
2019-02-25T07:34:25.651Z,2.42
2019-02-25T07:37:13.412Z,2.48
2019-02-25T07:40:00.379Z,2.58
2019-02-25T07:42:38.142Z,2.74
2019-02-25T07:45:28.481Z,2.85
2019-02-25T07:48:36.700Z,2.94
2019-02-25T07:51:24.227Z,3.05
2019-02-25T07:53:59.179Z,3.08
2019-02-25T07:56:35.034Z,3.13
2019-02-25T07:59:22.098Z,3.19
2019-02-25T08:02:09.684Z,3.23
2019-02-25T08:04:57.460Z,3.38
2019-02-25T08:07:44.614Z,3.49
2019-02-25T08:10:32.396Z,3.59
2019-02-25T08:16:21.687Z,3.73
2019-02-25T08:19:09.061Z,3.87
2019-02-25T08:24:49.492Z,4.01
2019-02-25T08:27:49.018Z,4.08
2019-02-25T08:30:48.138Z,4.24
2019-02-25T08:33:36.070Z,4.30
2019-02-25T08:37:02.755Z,4.42
2019-02-25T08:40:11.695Z,4.52
2019-02-25T08:42:57.675Z,4.66
2019-02-25T08:45:45.081Z,4.90
2019-02-25T08:48:17.798Z,4.97
2019-02-25T08:50:46.256Z,5.08
2019-02-25T08:55:54.715Z,5.26
2019-02-25T08:58:22.887Z,5.29
2019-02-25T09:00:51.168Z,5.33
2019-02-25T09:03:19.791Z,5.48
2019-02-25T09:05:48.558Z,5.61
2019-02-25T09:08:16.832Z,5.73
2019-02-25T09:10:44.395Z,5.86
2019-02-25T09:13:13.089Z,6.07
2019-02-25T09:15:41.385Z,6.24
2019-02-25T09:18:49.784Z,6.45
2019-02-25T09:21:18.334Z,6.69
2019-02-25T09:23:46.852Z,6.93
2019-02-25T09:26:15.077Z,7.32
2019-02-25T09:28:43.649Z,7.63
2019-02-25T09:31:12.110Z,7.90
2019-02-25T09:33:40.398Z,8.31
2019-02-25T09:36:08.981Z,8.63
2019-02-25T09:38:37.263Z,9.11
2019-02-25T09:41:05.542Z,9.55
2019-02-25T09:43:34.127Z,10.11
2019-02-25T09:46:02.671Z,10.79
2019-02-25T09:48:30.949Z,11.24
2019-02-25T09:50:59.631Z,11.57
2019-02-25T09:56:29.816Z,12.26
2019-02-25T09:58:57.686Z,12.95
2019-02-25T10:01:25.923Z,13.19
2019-02-25T10:03:54.246Z,13.62
2019-02-25T10:06:22.131Z,13.51
2019-02-25T10:08:50.776Z,13.94
2019-02-25T10:11:19.030Z,14.22
2019-02-25T10:13:47.697Z,14.57
2019-02-25T10:16:16.076Z,14.78
2019-02-25T10:18:44.370Z,14.49
2019-02-25T10:21:12.950Z,14.21
2019-02-25T10:23:40.617Z,14.35
2019-02-25T10:26:09.042Z,14.60
2019-02-25T10:28:36.876Z,14.64
2019-02-25T10:31:04.455Z,15.02
2019-02-25T10:33:32.665Z,15.27
2019-02-25T10:36:00.922Z,15.72
2019-02-25T10:38:29.589Z,15.91
2019-02-25T10:40:59.363Z,15.64
2019-02-25T10:43:36.525Z,16.00
2019-02-25T10:46:51.552Z,16.23
2019-02-25T10:49:20.068Z,16.49
2019-02-25T10:51:48.418Z,16.59
2019-02-25T10:54:17.075Z,16.37
2019-02-25T10:57:14.491Z,15.87
2019-02-25T10:59:42.772Z,16.19
2019-02-25T11:02:13.172Z,16.13
2019-02-25T11:04:41.842Z,15.72
2019-02-25T11:07:10.342Z,16.16
2019-02-25T11:09:57.850Z,16.27
2019-02-25T11:12:27.819Z,16.85
2019-02-25T11:14:56.451Z,16.98
2019-02-25T11:17:24.648Z,17.05
2019-02-25T11:19:54.973Z,17.02
2019-02-25T11:22:28.882Z,16.73
2019-02-25T11:24:57.732Z,16.27
2019-02-25T11:27:35.353Z,16.41
2019-02-25T11:30:16.588Z,16.51
2019-02-25T11:36:05.536Z,15.62
2019-02-25T11:38:37.087Z,15.06
2019-02-25T11:53:15.200Z,14.08
2019-02-25T11:56:23.523Z,14.11
2019-02-25T12:01:52.355Z,14.23
2019-02-25T12:05:00.556Z,13.81
2019-02-25T12:07:28.826Z,13.64
2019-02-25T12:10:37.462Z,14.25
2019-02-25T12:16:07.184Z,14.65
2019-02-25T12:21:44.528Z,14.37
2019-02-25T12:24:52.821Z,14.03
2019-02-25T12:33:35.369Z,13.63
2019-02-25T12:36:03.709Z,13.98
2019-02-25T12:38:32.274Z,14.13
2019-02-25T12:41:01.064Z,14.12
2019-02-25T12:47:09.457Z,14.42
2019-02-25T12:49:56.991Z,14.35
2019-02-25T12:55:38.079Z,14.45
2019-02-25T12:58:37.391Z,14.46
2019-02-25T13:01:24.681Z,15.11
2019-02-25T13:04:33.374Z,15.90
2019-02-25T13:07:01.234Z,16.53
2019-02-25T13:09:29.632Z,16.46
2019-02-25T13:11:57.493Z,16.45
2019-02-25T13:14:26.056Z,16.16
2019-02-25T13:16:54.066Z,15.91
2019-02-25T13:19:22.355Z,15.66
2019-02-25T13:25:13.264Z,16.47
2019-02-25T13:27:48.721Z,16.97
2019-02-25T13:30:35.983Z,17.61
2019-02-25T13:33:04.498Z,17.71
2019-02-25T13:35:44.391Z,18.52
2019-02-25T13:38:12.858Z,18.66
2019-02-25T13:40:41.015Z,19.32
2019-02-25T13:43:09.051Z,19.72
2019-02-25T13:45:36.986Z,19.12
2019-02-25T13:48:05.567Z,18.16
2019-02-25T13:50:33.126Z,18.03
2019-02-25T13:56:21.739Z,18.84
2019-02-25T13:59:30.343Z,19.20
2019-02-25T14:02:10.393Z,17.94
2019-02-25T14:07:39.940Z,16.74
2019-02-25T14:10:20.503Z,16.59
2019-02-25T14:12:48.395Z,17.34
2019-02-25T14:18:29.409Z,19.71
2019-02-25T14:21:38.067Z,19.41
2019-02-25T14:27:29.594Z,20.18
2019-02-25T14:30:45.003Z,19.57
2019-02-25T14:33:14.444Z,19.07
2019-02-25T14:35:53.100Z,18.83
2019-02-25T14:38:29.919Z,18.83
2019-02-25T14:41:46.523Z,19.27
2019-02-25T14:47:46.965Z,18.39
2019-02-25T14:50:35.804Z,19.37
2019-02-25T14:53:54.741Z,19.57
2019-02-25T15:02:31.210Z,20.26
2019-02-25T15:08:21.519Z,22.09
2019-02-25T15:10:50.524Z,22.11
2019-02-25T15:13:19.699Z,21.21
2019-02-25T15:16:06.920Z,19.92
2019-02-25T15:19:15.512Z,19.92
2019-02-25T15:32:02.714Z,20.29
2019-02-25T15:37:36.625Z,18.48
2019-02-25T15:40:45.954Z,18.09
2019-02-25T15:43:45.709Z,18.34
2019-02-25T15:49:25.643Z,18.79
2019-02-25T15:58:16.093Z,20.69
2019-02-25T16:03:56.498Z,21.38
2019-02-25T16:06:31.755Z,21.18
2019-02-25T16:12:40.955Z,18.89
2019-02-25T16:15:29.132Z,18.68
2019-02-25T16:18:44.294Z,17.19
2019-02-25T16:21:43.942Z,15.20
2019-02-25T16:30:13.222Z,12.30
2019-02-25T16:33:23.750Z,11.73
2019-02-25T16:36:03.996Z,11.34
2019-02-25T16:42:05.251Z,10.57
2019-02-25T16:44:33.681Z,10.17
2019-02-25T16:50:23.252Z,9.59
2019-02-25T16:53:05.942Z,9.34
2019-02-25T16:58:40.449Z,8.97
2019-02-25T17:04:11.878Z,8.51
2019-02-25T17:10:01.398Z,8.09
2019-02-25T17:12:37.526Z,7.89
2019-02-25T17:18:26.736Z,7.51
2019-02-25T17:20:54.907Z,7.28
2019-02-25T17:23:25.127Z,7.12
2019-02-25T17:26:02.031Z,6.98
2019-02-25T17:28:29.938Z,6.82
2019-02-25T17:30:58.258Z,6.68
2019-02-25T17:33:28.219Z,6.55
2019-02-25T17:38:58.723Z,6.27
2019-02-25T17:41:39.919Z,6.17
2019-02-25T17:47:24.496Z,5.94
2019-02-25T17:52:50.161Z,5.68
2019-02-25T17:55:59.882Z,5.58
2019-02-25T17:58:38.093Z,5.55
2019-02-25T18:01:56.214Z,5.46
2019-02-25T18:04:26.549Z,5.41
2019-02-25T18:06:55.369Z,5.34
2019-02-25T18:09:24.840Z,5.32
2019-02-25T18:11:53.200Z,5.21
2019-02-25T18:14:21.466Z,5.15
2019-02-25T18:16:51.272Z,5.09
2019-02-25T18:19:20.860Z,5.06
2019-02-25T18:21:58.164Z,5.01
2019-02-25T18:24:32.968Z,4.91
2019-02-25T18:27:00.575Z,4.83
2019-02-25T18:29:28.818Z,4.77
2019-02-25T18:32:06.029Z,4.75
2019-02-25T18:34:44.319Z,4.67
2019-02-25T18:37:13.476Z,4.60
2019-02-25T18:39:50.067Z,4.59
2019-02-25T18:42:26.065Z,4.58
2019-02-25T18:44:54.462Z,4.59
2019-02-25T18:47:25.027Z,4.56
2019-02-25T18:49:53.976Z,4.58
2019-02-25T18:52:29.660Z,4.59
2019-02-25T18:55:06.738Z,4.58
2019-02-25T18:58:22.227Z,4.54
2019-02-25T19:04:11.140Z,4.50
2019-02-25T19:06:47.836Z,4.47
2019-02-25T19:09:23.175Z,4.42
2019-02-25T19:11:58.989Z,4.37
2019-02-25T19:14:28.875Z,4.27
2019-02-25T19:17:06.398Z,4.24
2019-02-25T19:20:21.582Z,4.18
2019-02-25T19:23:02.819Z,4.16
2019-02-25T19:28:45.921Z,4.08
2019-02-25T19:31:14.151Z,4.02
2019-02-25T19:33:42.749Z,3.97
2019-02-25T19:36:11.583Z,3.87
2019-02-25T19:38:41.848Z,3.82
2019-02-25T19:41:17.750Z,3.76
2019-02-25T19:43:47.422Z,3.75
2019-02-25T19:46:16.231Z,3.68
2019-02-25T19:48:47.021Z,3.63
2019-02-25T19:51:23.062Z,3.59
2019-02-25T19:53:59.829Z,3.53
2019-02-25T19:56:35.712Z,3.46
2019-02-25T19:59:05.657Z,3.42
2019-02-25T20:01:40.908Z,3.38
2019-02-25T20:04:11.480Z,3.33
2019-02-25T20:10:19.262Z,3.28
2019-02-25T20:16:15.825Z,3.22
2019-02-25T20:18:42.022Z,3.17
2019-02-25T20:21:22.545Z,3.15
2019-02-25T20:23:53.829Z,3.10
2019-02-25T20:26:28.775Z,3.11
2019-02-25T20:31:59.694Z,3.13
2019-02-25T20:34:29.710Z,3.14
2019-02-25T20:36:59.922Z,3.11
2019-02-25T20:40:17.137Z,3.09
2019-02-25T20:42:56.097Z,3.04
2019-02-25T20:45:32.640Z,2.98
2019-02-25T20:48:01.963Z,2.95
2019-02-25T20:51:22.711Z,2.96
2019-02-25T20:54:01.189Z,2.94
2019-02-25T20:56:30.911Z,2.97
2019-02-25T20:59:07.587Z,3.00
2019-02-25T21:02:16.776Z,3.03
2019-02-25T21:08:08.819Z,3.06
2019-02-25T21:10:36.870Z,3.06
2019-02-25T21:13:05.432Z,3.10
2019-02-25T21:15:35.729Z,3.13
2019-02-25T21:18:51.258Z,3.14
2019-02-25T21:21:30.762Z,3.17
2019-02-25T21:24:06.783Z,3.19
2019-02-25T21:30:04.366Z,3.21
2019-02-25T21:32:47.134Z,3.19
2019-02-25T21:35:27.612Z,3.13
2019-02-25T21:38:41.038Z,3.08
2019-02-25T21:41:11.173Z,2.98
2019-02-25T21:43:49.332Z,2.92
2019-02-25T21:52:46.150Z,2.86
2019-02-25T21:55:23.839Z,2.91
2019-02-25T21:58:30.448Z,2.93
2019-02-25T22:01:18.308Z,2.93
2019-02-25T22:03:48.712Z,2.90
2019-02-25T22:06:20.028Z,2.88
2019-02-25T22:12:21.997Z,2.83
2019-02-25T22:15:10.820Z,2.81
2019-02-25T22:17:53.019Z,2.80
2019-02-25T22:21:09.484Z,2.82
2019-02-25T22:23:43.517Z,2.78
2019-02-25T22:26:12.651Z,2.83
2019-02-25T22:32:03.943Z,2.80
2019-02-25T22:35:00.556Z,2.83
2019-02-25T22:37:49.664Z,2.83
2019-02-25T22:40:38.827Z,2.91
2019-02-25T22:43:59.957Z,2.86
2019-02-25T22:46:57.526Z,2.86
2019-02-25T22:49:45.432Z,2.84
2019-02-25T22:52:34.774Z,2.79
2019-02-25T22:55:54.738Z,2.75
2019-02-25T22:58:31.595Z,2.81
2019-02-25T23:07:50.217Z,2.66
2019-02-25T23:10:29.805Z,2.60
2019-02-25T23:12:58.513Z,2.62
2019-02-25T23:15:30.153Z,2.60
2019-02-25T23:18:25.853Z,2.63
2019-02-25T23:21:03.360Z,2.65
2019-02-25T23:24:12.027Z,2.63
2019-02-25T23:30:00.431Z,2.61
2019-02-25T23:33:11.785Z,2.60
2019-02-25T23:35:49.191Z,2.54
2019-02-25T23:38:18.858Z,2.52
2019-02-25T23:40:47.218Z,2.48
2019-02-25T23:43:16.727Z,2.48
2019-02-25T23:45:46.406Z,2.47
2019-02-25T23:48:21.712Z,2.45
2019-02-25T23:50:50.310Z,2.46
2019-02-25T23:53:31.089Z,2.46
2019-02-25T23:56:00.369Z,2.47
2019-02-25T23:58:28.637Z,2.42
